sensor_id;sensor_type;location;lat;lon;timestamp;pressure;altitude;pressure_sealevel;temperature
15626;BMP180;7912;51.376;6.126;2023-01-16T00:04:35;99330.00;;;9.40
15626;BMP180;7912;51.376;6.126;2023-01-16T00:07:02;99341.00;;;9.50
15626;BMP180;7912;51.376;6.126;2023-01-16T00:09:29;99341.00;;;9.50
15626;BMP180;7912;51.376;6.126;2023-01-16T00:11:57;99326.00;;;9.60
15626;BMP180;7912;51.376;6.126;2023-01-16T00:14:24;99333.00;;;9.60
15626;BMP180;7912;51.376;6.126;2023-01-16T00:16:52;99324.00;;;9.60
15626;BMP180;7912;51.376;6.126;2023-01-16T00:19:28;99323.00;;;9.60
15626;BMP180;7912;51.376;6.126;2023-01-16T00:22:32;99323.00;;;9.60
15626;BMP180;7912;51.376;6.126;2023-01-16T00:42:19;99305.00;;;9.60
15626;BMP180;7912;51.376;6.126;2023-01-16T00:45:09;99304.00;;;9.70
15626;BMP180;7912;51.376;6.126;2023-01-16T00:47:50;99297.00;;;9.70
15626;BMP180;7912;51.376;6.126;2023-01-16T00:54:57;99285.00;;;9.70
15626;BMP180;7912;51.376;6.126;2023-01-16T01:02:02;99275.00;;;9.70
15626;BMP180;7912;51.376;6.126;2023-01-16T01:04:37;99261.00;;;9.70
15626;BMP180;7912;51.376;6.126;2023-01-16T01:07:20;99263.00;;;9.70
15626;BMP180;7912;51.376;6.126;2023-01-16T01:09:56;99255.00;;;9.70
15626;BMP180;7912;51.376;6.126;2023-01-16T01:12:35;99241.00;;;9.70
15626;BMP180;7912;51.376;6.126;2023-01-16T01:19:20;99239.00;;;9.60
15626;BMP180;7912;51.376;6.126;2023-01-16T01:21:55;99241.00;;;9.50
15626;BMP180;7912;51.376;6.126;2023-01-16T01:24:49;99227.00;;;9.50
15626;BMP180;7912;51.376;6.126;2023-01-16T01:27:33;99221.00;;;9.40
15626;BMP180;7912;51.376;6.126;2023-01-16T01:30:32;99233.00;;;9.40
15626;BMP180;7912;51.376;6.126;2023-01-16T01:33:11;99219.00;;;9.40
15626;BMP180;7912;51.376;6.126;2023-01-16T01:35:44;99207.00;;;9.40
15626;BMP180;7912;51.376;6.126;2023-01-16T01:38:16;99200.00;;;9.30
15626;BMP180;7912;51.376;6.126;2023-01-16T01:40:46;99196.00;;;9.30
15626;BMP180;7912;51.376;6.126;2023-01-16T01:43:15;99195.00;;;9.30
15626;BMP180;7912;51.376;6.126;2023-01-16T01:45:51;99195.00;;;9.30
15626;BMP180;7912;51.376;6.126;2023-01-16T01:48:25;99179.00;;;9.20
15626;BMP180;7912;51.376;6.126;2023-01-16T01:51:08;99178.00;;;9.20
15626;BMP180;7912;51.376;6.126;2023-01-16T01:53:58;99176.00;;;9.10
15626;BMP180;7912;51.376;6.126;2023-01-16T01:56:46;99157.00;;;9.10
15626;BMP180;7912;51.376;6.126;2023-01-16T01:59:33;99156.00;;;9.10
15626;BMP180;7912;51.376;6.126;2023-01-16T02:02:12;99169.00;;;9.00
15626;BMP180;7912;51.376;6.126;2023-01-16T02:04:55;99138.00;;;9.00
15626;BMP180;7912;51.376;6.126;2023-01-16T02:07:29;99142.00;;;9.00
15626;BMP180;7912;51.376;6.126;2023-01-16T02:12:51;99132.00;;;8.90
15626;BMP180;7912;51.376;6.126;2023-01-16T02:15:33;99134.00;;;8.90
15626;BMP180;7912;51.376;6.126;2023-01-16T02:18:13;99108.00;;;8.90
15626;BMP180;7912;51.376;6.126;2023-01-16T02:21:39;99124.00;;;8.80
15626;BMP180;7912;51.376;6.126;2023-01-16T02:34:10;99099.00;;;8.70
15626;BMP180;7912;51.376;6.126;2023-01-16T02:40:07;99084.00;;;8.60
15626;BMP180;7912;51.376;6.126;2023-01-16T02:43:19;99076.00;;;8.50
15626;BMP180;7912;51.376;6.126;2023-01-16T02:46:34;99084.00;;;8.50
15626;BMP180;7912;51.376;6.126;2023-01-16T02:49:54;99062.00;;;8.50
15626;BMP180;7912;51.376;6.126;2023-01-16T02:52:59;99058.00;;;8.50
15626;BMP180;7912;51.376;6.126;2023-01-16T02:55:53;99050.00;;;8.40
15626;BMP180;7912;51.376;6.126;2023-01-16T02:58:41;99035.00;;;8.40
15626;BMP180;7912;51.376;6.126;2023-01-16T03:01:21;99027.00;;;8.40
15626;BMP180;7912;51.376;6.126;2023-01-16T03:06:43;99008.00;;;8.40
15626;BMP180;7912;51.376;6.126;2023-01-16T03:22:22;98983.00;;;8.20
15626;BMP180;7912;51.376;6.126;2023-01-16T03:26:06;98972.00;;;8.20
15626;BMP180;7912;51.376;6.126;2023-01-16T03:29:01;98953.00;;;8.20
15626;BMP180;7912;51.376;6.126;2023-01-16T05:28:19;98592.00;;;8.00
15626;BMP180;7912;51.376;6.126;2023-01-16T05:30:53;98583.00;;;8.10
15626;BMP180;7912;51.376;6.126;2023-01-16T05:33:20;98558.00;;;8.20
15626;BMP180;7912;51.376;6.126;2023-01-16T05:35:48;98558.00;;;8.30
15626;BMP180;7912;51.376;6.126;2023-01-16T05:38:15;98549.00;;;8.30
15626;BMP180;7912;51.376;6.126;2023-01-16T05:40:44;98553.00;;;8.40
15626;BMP180;7912;51.376;6.126;2023-01-16T05:43:12;98544.00;;;8.40
15626;BMP180;7912;51.376;6.126;2023-01-16T05:45:39;98524.00;;;8.40
15626;BMP180;7912;51.376;6.126;2023-01-16T05:48:07;98514.00;;;8.50
15626;BMP180;7912;51.376;6.126;2023-01-16T05:50:34;98506.00;;;8.50
15626;BMP180;7912;51.376;6.126;2023-01-16T05:53:01;98511.00;;;8.50
15626;BMP180;7912;51.376;6.126;2023-01-16T05:55:31;98502.00;;;8.60
15626;BMP180;7912;51.376;6.126;2023-01-16T05:57:59;98493.00;;;8.60
15626;BMP180;7912;51.376;6.126;2023-01-16T06:00:26;98481.00;;;8.60
15626;BMP180;7912;51.376;6.126;2023-01-16T06:02:54;98466.00;;;8.60
15626;BMP180;7912;51.376;6.126;2023-01-16T06:05:21;98452.00;;;8.60
15626;BMP180;7912;51.376;6.126;2023-01-16T06:07:58;98452.00;;;8.70
15626;BMP180;7912;51.376;6.126;2023-01-16T06:10:26;98430.00;;;8.70
15626;BMP180;7912;51.376;6.126;2023-01-16T06:20:27;98401.00;;;8.70
15626;BMP180;7912;51.376;6.126;2023-01-16T06:22:54;98397.00;;;8.70
15626;BMP180;7912;51.376;6.126;2023-01-16T06:25:21;98396.00;;;8.70
15626;BMP180;7912;51.376;6.126;2023-01-16T06:27:50;98380.00;;;8.70
15626;BMP180;7912;51.376;6.126;2023-01-16T06:30:21;98385.00;;;8.70
15626;BMP180;7912;51.376;6.126;2023-01-16T06:32:55;98377.00;;;8.80
15626;BMP180;7912;51.376;6.126;2023-01-16T06:35:23;98380.00;;;8.70
15626;BMP180;7912;51.376;6.126;2023-01-16T06:37:50;98379.00;;;8.70
15626;BMP180;7912;51.376;6.126;2023-01-16T06:48:38;98357.00;;;8.60
15626;BMP180;7912;51.376;6.126;2023-01-16T06:51:05;98333.00;;;8.60
15626;BMP180;7912;51.376;6.126;2023-01-16T06:53:33;98338.00;;;8.60
15626;BMP180;7912;51.376;6.126;2023-01-16T06:56:01;98313.00;;;8.60
15626;BMP180;7912;51.376;6.126;2023-01-16T06:58:28;98317.00;;;8.60
15626;BMP180;7912;51.376;6.126;2023-01-16T07:00:55;98304.00;;;8.60
15626;BMP180;7912;51.376;6.126;2023-01-16T07:03:23;98284.00;;;8.70
15626;BMP180;7912;51.376;6.126;2023-01-16T07:05:54;98274.00;;;8.70
15626;BMP180;7912;51.376;6.126;2023-01-16T07:08:21;98270.00;;;8.70
15626;BMP180;7912;51.376;6.126;2023-01-16T07:10:49;98270.00;;;8.70
15626;BMP180;7912;51.376;6.126;2023-01-16T07:13:18;98244.00;;;8.70
15626;BMP180;7912;51.376;6.126;2023-01-16T07:15:50;98240.00;;;8.70
15626;BMP180;7912;51.376;6.126;2023-01-16T07:18:36;98224.00;;;8.70
15626;BMP180;7912;51.376;6.126;2023-01-16T07:21:25;98214.00;;;8.70
15626;BMP180;7912;51.376;6.126;2023-01-16T07:24:19;98197.00;;;8.70
15626;BMP180;7912;51.376;6.126;2023-01-16T07:26:56;98183.00;;;8.70
15626;BMP180;7912;51.376;6.126;2023-01-16T07:29:29;98174.00;;;8.70
15626;BMP180;7912;51.376;6.126;2023-01-16T07:32:00;98164.00;;;8.70
15626;BMP180;7912;51.376;6.126;2023-01-16T07:34:31;98153.00;;;8.70
15626;BMP180;7912;51.376;6.126;2023-01-16T07:36:59;98149.00;;;8.70
15626;BMP180;7912;51.376;6.126;2023-01-16T07:39:27;98153.00;;;8.80
15626;BMP180;7912;51.376;6.126;2023-01-16T07:41:54;98143.00;;;8.70
15626;BMP180;7912;51.376;6.126;2023-01-16T07:44:24;98138.00;;;8.80
15626;BMP180;7912;51.376;6.126;2023-01-16T07:46:52;98138.00;;;8.80
15626;BMP180;7912;51.376;6.126;2023-01-16T07:49:19;98124.00;;;8.80
15626;BMP180;7912;51.376;6.126;2023-01-16T07:51:46;98110.00;;;8.80
15626;BMP180;7912;51.376;6.126;2023-01-16T07:54:14;98110.00;;;8.80
15626;BMP180;7912;51.376;6.126;2023-01-16T07:56:42;98104.00;;;8.80
15626;BMP180;7912;51.376;6.126;2023-01-16T07:59:09;98106.00;;;8.80
15626;BMP180;7912;51.376;6.126;2023-01-16T08:01:39;98085.00;;;8.80
15626;BMP180;7912;51.376;6.126;2023-01-16T08:04:06;98072.00;;;8.80
15626;BMP180;7912;51.376;6.126;2023-01-16T08:06:34;98077.00;;;8.80
15626;BMP180;7912;51.376;6.126;2023-01-16T08:09:02;98057.00;;;8.80
15626;BMP180;7912;51.376;6.126;2023-01-16T08:11:31;98074.00;;;8.80
15626;BMP180;7912;51.376;6.126;2023-01-16T08:14:20;98063.00;;;8.80
15626;BMP180;7912;51.376;6.126;2023-01-16T08:16:48;98059.00;;;8.80
15626;BMP180;7912;51.376;6.126;2023-01-16T08:19:15;98039.00;;;8.80
15626;BMP180;7912;51.376;6.126;2023-01-16T08:21:43;98043.00;;;8.80
15626;BMP180;7912;51.376;6.126;2023-01-16T08:24:11;98042.00;;;8.80
15626;BMP180;7912;51.376;6.126;2023-01-16T08:26:41;98027.00;;;8.80
15626;BMP180;7912;51.376;6.126;2023-01-16T08:29:10;98035.00;;;8.80
15626;BMP180;7912;51.376;6.126;2023-01-16T08:31:39;98012.00;;;8.80
15626;BMP180;7912;51.376;6.126;2023-01-16T08:34:08;98021.00;;;8.80
15626;BMP180;7912;51.376;6.126;2023-01-16T08:36:36;97999.00;;;8.80
15626;BMP180;7912;51.376;6.126;2023-01-16T08:39:08;98007.00;;;8.80
15626;BMP180;7912;51.376;6.126;2023-01-16T08:41:37;98000.00;;;8.70
15626;BMP180;7912;51.376;6.126;2023-01-16T08:44:22;97995.00;;;8.70
15626;BMP180;7912;51.376;6.126;2023-01-16T08:47:13;97990.00;;;8.60
15626;BMP180;7912;51.376;6.126;2023-01-16T08:50:00;97969.00;;;8.60
15626;BMP180;7912;51.376;6.126;2023-01-16T08:52:46;97982.00;;;8.60
15626;BMP180;7912;51.376;6.126;2023-01-16T08:55:14;97982.00;;;8.60
15626;BMP180;7912;51.376;6.126;2023-01-16T08:57:41;97970.00;;;8.60
15626;BMP180;7912;51.376;6.126;2023-01-16T09:00:10;97989.00;;;8.60
15626;BMP180;7912;51.376;6.126;2023-01-16T09:02:37;97967.00;;;8.70
15626;BMP180;7912;51.376;6.126;2023-01-16T09:05:06;97978.00;;;8.60
15626;BMP180;7912;51.376;6.126;2023-01-16T09:07:34;97969.00;;;8.60
15626;BMP180;7912;51.376;6.126;2023-01-16T09:10:01;97953.00;;;8.60
15626;BMP180;7912;51.376;6.126;2023-01-16T09:12:29;97954.00;;;8.60
15626;BMP180;7912;51.376;6.126;2023-01-16T09:15:18;97941.00;;;8.60
15626;BMP180;7912;51.376;6.126;2023-01-16T09:17:45;97958.00;;;8.60
15626;BMP180;7912;51.376;6.126;2023-01-16T09:20:13;97942.00;;;8.60
15626;BMP180;7912;51.376;6.126;2023-01-16T09:22:41;97937.00;;;8.60
15626;BMP180;7912;51.376;6.126;2023-01-16T09:25:12;97940.00;;;8.60
15626;BMP180;7912;51.376;6.126;2023-01-16T09:27:39;97941.00;;;8.60
15626;BMP180;7912;51.376;6.126;2023-01-16T09:30:08;97933.00;;;8.60
15626;BMP180;7912;51.376;6.126;2023-01-16T09:32:35;97922.00;;;8.60
15626;BMP180;7912;51.376;6.126;2023-01-16T09:35:03;97928.00;;;8.60
15626;BMP180;7912;51.376;6.126;2023-01-16T09:37:31;97936.00;;;8.60
15626;BMP180;7912;51.376;6.126;2023-01-16T09:39:59;97927.00;;;8.60
15626;BMP180;7912;51.376;6.126;2023-01-16T09:45:36;97926.00;;;8.60
15626;BMP180;7912;51.376;6.126;2023-01-16T09:48:13;97926.00;;;8.60
15626;BMP180;7912;51.376;6.126;2023-01-16T09:50:50;97911.00;;;8.60
15626;BMP180;7912;51.376;6.126;2023-01-16T09:53:54;97914.00;;;8.60
15626;BMP180;7912;51.376;6.126;2023-01-16T09:56:48;97903.00;;;8.60
15626;BMP180;7912;51.376;6.126;2023-01-16T09:59:45;97919.00;;;8.60
15626;BMP180;7912;51.376;6.126;2023-01-16T10:02:29;97900.00;;;8.60
15626;BMP180;7912;51.376;6.126;2023-01-16T10:05:03;97900.00;;;8.60
15626;BMP180;7912;51.376;6.126;2023-01-16T10:07:57;97890.00;;;8.60
15626;BMP180;7912;51.376;6.126;2023-01-16T10:10:54;97887.00;;;8.60
15626;BMP180;7912;51.376;6.126;2023-01-16T10:13:53;97868.00;;;8.60
15626;BMP180;7912;51.376;6.126;2023-01-16T10:16:59;97866.00;;;8.60
15626;BMP180;7912;51.376;6.126;2023-01-16T10:25:38;97851.00;;;8.60
15626;BMP180;7912;51.376;6.126;2023-01-16T10:28:59;97843.00;;;8.60
15626;BMP180;7912;51.376;6.126;2023-01-16T10:31:58;97835.00;;;8.70
15626;BMP180;7912;51.376;6.126;2023-01-16T10:37:06;97823.00;;;8.80
15626;BMP180;7912;51.376;6.126;2023-01-16T10:39:37;97821.00;;;8.90
15626;BMP180;7912;51.376;6.126;2023-01-16T10:42:24;97809.00;;;8.90
15626;BMP180;7912;51.376;6.126;2023-01-16T10:45:21;97798.00;;;9.00
15626;BMP180;7912;51.376;6.126;2023-01-16T10:48:14;97803.00;;;9.10
15626;BMP180;7912;51.376;6.126;2023-01-16T10:51:03;97802.00;;;9.10
15626;BMP180;7912;51.376;6.126;2023-01-16T10:53:35;97793.00;;;9.20
15626;BMP180;7912;51.376;6.126;2023-01-16T10:56:07;97776.00;;;9.30
15626;BMP180;7912;51.376;6.126;2023-01-16T10:58:37;97780.00;;;9.40
15626;BMP180;7912;51.376;6.126;2023-01-16T11:01:17;97765.00;;;9.60
15626;BMP180;7912;51.376;6.126;2023-01-16T11:04:05;97769.00;;;9.60
15626;BMP180;7912;51.376;6.126;2023-01-16T11:06:37;97752.00;;;9.70
15626;BMP180;7912;51.376;6.126;2023-01-16T11:11:44;97734.00;;;9.70
15626;BMP180;7912;51.376;6.126;2023-01-16T11:14:34;97725.00;;;9.80
15626;BMP180;7912;51.376;6.126;2023-01-16T11:17:30;97713.00;;;9.80
15626;BMP180;7912;51.376;6.126;2023-01-16T11:20:31;97721.00;;;9.90
15626;BMP180;7912;51.376;6.126;2023-01-16T11:23:19;97711.00;;;10.00
15626;BMP180;7912;51.376;6.126;2023-01-16T11:25:50;97695.00;;;10.00
15626;BMP180;7912;51.376;6.126;2023-01-16T11:28:30;97703.00;;;10.00
15626;BMP180;7912;51.376;6.126;2023-01-16T11:31:12;97688.00;;;10.10
15626;BMP180;7912;51.376;6.126;2023-01-16T11:33:48;97677.00;;;10.10
15626;BMP180;7912;51.376;6.126;2023-01-16T11:36:25;97672.00;;;10.20
15626;BMP180;7912;51.376;6.126;2023-01-16T11:38:55;97659.00;;;10.10
15626;BMP180;7912;51.376;6.126;2023-01-16T11:41:37;97665.00;;;10.10
15626;BMP180;7912;51.376;6.126;2023-01-16T11:47:12;97657.00;;;10.00
15626;BMP180;7912;51.376;6.126;2023-01-16T11:49:45;97647.00;;;10.00
15626;BMP180;7912;51.376;6.126;2023-01-16T11:52:17;97644.00;;;10.00
15626;BMP180;7912;51.376;6.126;2023-01-16T11:55:00;97640.00;;;10.00
15626;BMP180;7912;51.376;6.126;2023-01-16T11:58:14;97642.00;;;10.00
15626;BMP180;7912;51.376;6.126;2023-01-16T12:04:30;97630.00;;;10.00
15626;BMP180;7912;51.376;6.126;2023-01-16T12:07:17;97614.00;;;10.00
15626;BMP180;7912;51.376;6.126;2023-01-16T12:10:26;97611.00;;;9.90
15626;BMP180;7912;51.376;6.126;2023-01-16T12:13:07;97586.00;;;9.90
15626;BMP180;7912;51.376;6.126;2023-01-16T12:16:39;97581.00;;;9.90
15626;BMP180;7912;51.376;6.126;2023-01-16T12:19:43;97583.00;;;9.80
15626;BMP180;7912;51.376;6.126;2023-01-16T12:26:03;97568.00;;;9.70
15626;BMP180;7912;51.376;6.126;2023-01-16T12:31:57;97562.00;;;9.60
15626;BMP180;7912;51.376;6.126;2023-01-16T12:37:42;97557.00;;;9.60
15626;BMP180;7912;51.376;6.126;2023-01-16T12:40:55;97559.00;;;9.50
15626;BMP180;7912;51.376;6.126;2023-01-16T12:55:31;97524.00;;;9.50
15626;BMP180;7912;51.376;6.126;2023-01-16T12:58:21;97523.00;;;9.40
15626;BMP180;7912;51.376;6.126;2023-01-16T13:01:14;97497.00;;;9.40
15626;BMP180;7912;51.376;6.126;2023-01-16T13:04:15;97504.00;;;9.50
15626;BMP180;7912;51.376;6.126;2023-01-16T13:06:55;97495.00;;;9.50
15626;BMP180;7912;51.376;6.126;2023-01-16T13:09:36;97492.00;;;9.60
15626;BMP180;7912;51.376;6.126;2023-01-16T13:12:24;97482.00;;;9.60
15626;BMP180;7912;51.376;6.126;2023-01-16T13:15:17;97482.00;;;9.60
15626;BMP180;7912;51.376;6.126;2023-01-16T13:18:16;97474.00;;;9.60
15626;BMP180;7912;51.376;6.126;2023-01-16T13:20:51;97466.00;;;9.60
15626;BMP180;7912;51.376;6.126;2023-01-16T13:23:40;97460.00;;;9.70
15626;BMP180;7912;51.376;6.126;2023-01-16T13:26:13;97458.00;;;9.60
15626;BMP180;7912;51.376;6.126;2023-01-16T13:29:05;97458.00;;;9.70
15626;BMP180;7912;51.376;6.126;2023-01-16T13:31:52;97455.00;;;9.60
15626;BMP180;7912;51.376;6.126;2023-01-16T13:34:45;97458.00;;;9.70
15626;BMP180;7912;51.376;6.126;2023-01-16T13:37:50;97450.00;;;9.70
15626;BMP180;7912;51.376;6.126;2023-01-16T13:40:46;97437.00;;;9.70
15626;BMP180;7912;51.376;6.126;2023-01-16T13:43:34;97435.00;;;9.70
15626;BMP180;7912;51.376;6.126;2023-01-16T13:46:21;97435.00;;;9.70
15626;BMP180;7912;51.376;6.126;2023-01-16T13:48:57;97431.00;;;9.60
15626;BMP180;7912;51.376;6.126;2023-01-16T13:51:26;97436.00;;;9.70
15626;BMP180;7912;51.376;6.126;2023-01-16T13:54:01;97428.00;;;9.70
15626;BMP180;7912;51.376;6.126;2023-01-16T13:56:32;97435.00;;;9.70
15626;BMP180;7912;51.376;6.126;2023-01-16T13:59:26;97430.00;;;9.80
15626;BMP180;7912;51.376;6.126;2023-01-16T14:01:56;97421.00;;;9.80
15626;BMP180;7912;51.376;6.126;2023-01-16T14:04:29;97426.00;;;9.80
15626;BMP180;7912;51.376;6.126;2023-01-16T14:07:03;97424.00;;;9.70
15626;BMP180;7912;51.376;6.126;2023-01-16T14:10:24;97422.00;;;9.70
15626;BMP180;7912;51.376;6.126;2023-01-16T14:15:53;97406.00;;;9.70
15626;BMP180;7912;51.376;6.126;2023-01-16T14:24:14;97420.00;;;9.70
15626;BMP180;7912;51.376;6.126;2023-01-16T14:29:25;97406.00;;;9.70
15626;BMP180;7912;51.376;6.126;2023-01-16T14:32:03;97417.00;;;9.70
15626;BMP180;7912;51.376;6.126;2023-01-16T14:34:38;97407.00;;;9.70
15626;BMP180;7912;51.376;6.126;2023-01-16T14:39:57;97419.00;;;9.70
15626;BMP180;7912;51.376;6.126;2023-01-16T14:42:51;97410.00;;;9.60
15626;BMP180;7912;51.376;6.126;2023-01-16T14:45:40;97416.00;;;9.60
15626;BMP180;7912;51.376;6.126;2023-01-16T14:48:35;97412.00;;;9.60
15626;BMP180;7912;51.376;6.126;2023-01-16T14:51:33;97413.00;;;9.60
15626;BMP180;7912;51.376;6.126;2023-01-16T14:54:29;97398.00;;;9.60
15626;BMP180;7912;51.376;6.126;2023-01-16T14:57:26;97390.00;;;9.60
15626;BMP180;7912;51.376;6.126;2023-01-16T15:00:14;97390.00;;;9.60
15626;BMP180;7912;51.376;6.126;2023-01-16T15:03:04;97390.00;;;9.60
15626;BMP180;7912;51.376;6.126;2023-01-16T15:05:46;97389.00;;;9.70
15626;BMP180;7912;51.376;6.126;2023-01-16T15:08:33;97382.00;;;9.70
15626;BMP180;7912;51.376;6.126;2023-01-16T15:11:25;97386.00;;;9.70
15626;BMP180;7912;51.376;6.126;2023-01-16T15:14:21;97379.00;;;9.70
15626;BMP180;7912;51.376;6.126;2023-01-16T15:17:16;97378.00;;;9.70
15626;BMP180;7912;51.376;6.126;2023-01-16T15:20:23;97373.00;;;9.70
15626;BMP180;7912;51.376;6.126;2023-01-16T15:23:29;97390.00;;;9.70
15626;BMP180;7912;51.376;6.126;2023-01-16T15:26:13;97386.00;;;9.70
15626;BMP180;7912;51.376;6.126;2023-01-16T15:29:16;97391.00;;;9.70
15626;BMP180;7912;51.376;6.126;2023-01-16T15:31:55;97391.00;;;9.70
15626;BMP180;7912;51.376;6.126;2023-01-16T15:34:29;97399.00;;;9.70
15626;BMP180;7912;51.376;6.126;2023-01-16T15:36:59;97393.00;;;9.60
15626;BMP180;7912;51.376;6.126;2023-01-16T15:39:41;97397.00;;;9.60
15626;BMP180;7912;51.376;6.126;2023-01-16T15:42:22;97400.00;;;9.50
15626;BMP180;7912;51.376;6.126;2023-01-16T15:45:25;97406.00;;;9.50
15626;BMP180;7912;51.376;6.126;2023-01-16T15:55:24;97402.00;;;9.40
15626;BMP180;7912;51.376;6.126;2023-01-16T16:09:01;97393.00;;;9.40
15626;BMP180;7912;51.376;6.126;2023-01-16T16:11:31;97392.00;;;9.40
15626;BMP180;7912;51.376;6.126;2023-01-16T16:14:36;97393.00;;;9.40
15626;BMP180;7912;51.376;6.126;2023-01-16T16:17:42;97392.00;;;9.40
15626;BMP180;7912;51.376;6.126;2023-01-16T16:20:41;97386.00;;;9.40
15626;BMP180;7912;51.376;6.126;2023-01-16T16:26:04;97377.00;;;9.40
15626;BMP180;7912;51.376;6.126;2023-01-16T16:28:36;97393.00;;;9.40
15626;BMP180;7912;51.376;6.126;2023-01-16T16:31:29;97400.00;;;9.40
15626;BMP180;7912;51.376;6.126;2023-01-16T16:34:15;97388.00;;;9.40
15626;BMP180;7912;51.376;6.126;2023-01-16T16:36:47;97380.00;;;9.40
15626;BMP180;7912;51.376;6.126;2023-01-16T16:47:42;97388.00;;;9.30
15626;BMP180;7912;51.376;6.126;2023-01-16T16:50:30;97396.00;;;9.30
15626;BMP180;7912;51.376;6.126;2023-01-16T16:53:10;97405.00;;;9.30
15626;BMP180;7912;51.376;6.126;2023-01-16T16:55:47;97401.00;;;9.30
15626;BMP180;7912;51.376;6.126;2023-01-16T16:58:20;97400.00;;;9.30
15626;BMP180;7912;51.376;6.126;2023-01-16T17:00:50;97399.00;;;9.30
15626;BMP180;7912;51.376;6.126;2023-01-16T17:03:25;97404.00;;;9.30
15626;BMP180;7912;51.376;6.126;2023-01-16T17:06:00;97394.00;;;9.30
15626;BMP180;7912;51.376;6.126;2023-01-16T17:08:28;97398.00;;;9.30
15626;BMP180;7912;51.376;6.126;2023-01-16T17:10:56;97401.00;;;9.30
15626;BMP180;7912;51.376;6.126;2023-01-16T17:13:25;97402.00;;;9.30
15626;BMP180;7912;51.376;6.126;2023-01-16T17:15:56;97394.00;;;9.30
15626;BMP180;7912;51.376;6.126;2023-01-16T17:18:27;97395.00;;;9.40
15626;BMP180;7912;51.376;6.126;2023-01-16T17:20:55;97410.00;;;9.40
15626;BMP180;7912;51.376;6.126;2023-01-16T17:23:23;97403.00;;;9.40
15626;BMP180;7912;51.376;6.126;2023-01-16T17:25:52;97410.00;;;9.30
15626;BMP180;7912;51.376;6.126;2023-01-16T17:28:23;97406.00;;;9.40
15626;BMP180;7912;51.376;6.126;2023-01-16T17:30:51;97407.00;;;9.40
15626;BMP180;7912;51.376;6.126;2023-01-16T17:33:19;97406.00;;;9.40
15626;BMP180;7912;51.376;6.126;2023-01-16T17:35:48;97402.00;;;9.40
15626;BMP180;7912;51.376;6.126;2023-01-16T17:38:41;97415.00;;;9.40
15626;BMP180;7912;51.376;6.126;2023-01-16T17:41:19;97405.00;;;9.40
15626;BMP180;7912;51.376;6.126;2023-01-16T17:43:49;97419.00;;;9.40
15626;BMP180;7912;51.376;6.126;2023-01-16T17:46:35;97410.00;;;9.40
15626;BMP180;7912;51.376;6.126;2023-01-16T17:49:03;97402.00;;;9.40
15626;BMP180;7912;51.376;6.126;2023-01-16T17:51:30;97417.00;;;9.40
15626;BMP180;7912;51.376;6.126;2023-01-16T17:53:59;97417.00;;;9.40
15626;BMP180;7912;51.376;6.126;2023-01-16T17:56:27;97420.00;;;9.40
15626;BMP180;7912;51.376;6.126;2023-01-16T17:58:54;97426.00;;;9.50
15626;BMP180;7912;51.376;6.126;2023-01-16T18:01:31;97429.00;;;9.50
15626;BMP180;7912;51.376;6.126;2023-01-16T18:04:05;97426.00;;;9.50
15626;BMP180;7912;51.376;6.126;2023-01-16T18:06:37;97432.00;;;9.50
15626;BMP180;7912;51.376;6.126;2023-01-16T18:09:06;97435.00;;;9.50
15626;BMP180;7912;51.376;6.126;2023-01-16T18:11:38;97441.00;;;9.50
15626;BMP180;7912;51.376;6.126;2023-01-16T18:14:24;97437.00;;;9.50
15626;BMP180;7912;51.376;6.126;2023-01-16T18:17:20;97444.00;;;9.50
15626;BMP180;7912;51.376;6.126;2023-01-16T18:19:49;97449.00;;;9.50
15626;BMP180;7912;51.376;6.126;2023-01-16T18:22:16;97447.00;;;9.50
15626;BMP180;7912;51.376;6.126;2023-01-16T18:24:45;97439.00;;;9.50
15626;BMP180;7912;51.376;6.126;2023-01-16T18:27:16;97457.00;;;9.50
15626;BMP180;7912;51.376;6.126;2023-01-16T18:29:45;97462.00;;;9.50
15626;BMP180;7912;51.376;6.126;2023-01-16T18:32:16;97461.00;;;9.60
15626;BMP180;7912;51.376;6.126;2023-01-16T18:34:53;97471.00;;;9.60
15626;BMP180;7912;51.376;6.126;2023-01-16T18:37:35;97473.00;;;9.50
15626;BMP180;7912;51.376;6.126;2023-01-16T18:40:12;97485.00;;;9.50
15626;BMP180;7912;51.376;6.126;2023-01-16T18:42:59;97488.00;;;9.50
15626;BMP180;7912;51.376;6.126;2023-01-16T18:45:46;97489.00;;;9.40
15626;BMP180;7912;51.376;6.126;2023-01-16T18:48:32;97490.00;;;9.40
15626;BMP180;7912;51.376;6.126;2023-01-16T18:51:18;97493.00;;;9.40
15626;BMP180;7912;51.376;6.126;2023-01-16T18:54:17;97500.00;;;9.30
15626;BMP180;7912;51.376;6.126;2023-01-16T18:57:12;97500.00;;;9.30
15626;BMP180;7912;51.376;6.126;2023-01-16T18:59:58;97511.00;;;9.10
15626;BMP180;7912;51.376;6.126;2023-01-16T19:02:49;97515.00;;;9.10
15626;BMP180;7912;51.376;6.126;2023-01-16T19:05:22;97525.00;;;9.00
15626;BMP180;7912;51.376;6.126;2023-01-16T19:07:53;97511.00;;;9.00
15626;BMP180;7912;51.376;6.126;2023-01-16T19:10:27;97533.00;;;8.90
15626;BMP180;7912;51.376;6.126;2023-01-16T19:12:59;97533.00;;;8.80
15626;BMP180;7912;51.376;6.126;2023-01-16T19:15:29;97538.00;;;8.80
15626;BMP180;7912;51.376;6.126;2023-01-16T19:17:56;97550.00;;;8.80
15626;BMP180;7912;51.376;6.126;2023-01-16T19:20:24;97564.00;;;8.70
15626;BMP180;7912;51.376;6.126;2023-01-16T19:22:51;97559.00;;;8.70
15626;BMP180;7912;51.376;6.126;2023-01-16T19:25:22;97568.00;;;8.60
15626;BMP180;7912;51.376;6.126;2023-01-16T19:27:49;97566.00;;;8.60
15626;BMP180;7912;51.376;6.126;2023-01-16T19:30:17;97564.00;;;8.50
15626;BMP180;7912;51.376;6.126;2023-01-16T19:32:45;97578.00;;;8.50
15626;BMP180;7912;51.376;6.126;2023-01-16T19:35:13;97595.00;;;8.40
15626;BMP180;7912;51.376;6.126;2023-01-16T19:37:41;97598.00;;;8.40
15626;BMP180;7912;51.376;6.126;2023-01-16T19:40:15;97609.00;;;8.40
15626;BMP180;7912;51.376;6.126;2023-01-16T19:42:43;97605.00;;;8.40
15626;BMP180;7912;51.376;6.126;2023-01-16T19:45:29;97624.00;;;8.30
15626;BMP180;7912;51.376;6.126;2023-01-16T19:48:21;97610.00;;;8.30
15626;BMP180;7912;51.376;6.126;2023-01-16T19:50:51;97614.00;;;8.30
15626;BMP180;7912;51.376;6.126;2023-01-16T19:53:19;97623.00;;;8.30
15626;BMP180;7912;51.376;6.126;2023-01-16T19:55:46;97616.00;;;8.30
15626;BMP180;7912;51.376;6.126;2023-01-16T19:58:14;97624.00;;;8.30
15626;BMP180;7912;51.376;6.126;2023-01-16T20:00:41;97640.00;;;8.30
15626;BMP180;7912;51.376;6.126;2023-01-16T20:03:28;97640.00;;;8.30
15626;BMP180;7912;51.376;6.126;2023-01-16T20:05:56;97655.00;;;8.30
15626;BMP180;7912;51.376;6.126;2023-01-16T20:08:31;97646.00;;;8.30
15626;BMP180;7912;51.376;6.126;2023-01-16T20:11:16;97657.00;;;8.30
15626;BMP180;7912;51.376;6.126;2023-01-16T20:13:52;97656.00;;;8.30
15626;BMP180;7912;51.376;6.126;2023-01-16T20:16:19;97667.00;;;8.30
15626;BMP180;7912;51.376;6.126;2023-01-16T20:18:48;97679.00;;;8.30
15626;BMP180;7912;51.376;6.126;2023-01-16T20:21:15;97664.00;;;8.20
15626;BMP180;7912;51.376;6.126;2023-01-16T20:23:44;97685.00;;;8.20
15626;BMP180;7912;51.376;6.126;2023-01-16T20:26:12;97690.00;;;8.30